Time;durP1;ratioP1;P1;durP2;ratioP2;P2;SDS_P1;SDS_P2;PMS_P1;PMS_P2;Temp;Humidity;BMP_temperature;BMP_pressure;BME280_temperature;BME280_humidity;BME280_pressure;Samples;Min_cycle;Max_cycle;Signal;HPM_P1;HPM_P2
2023/01/31 00:03:24;;;;;;;11.50;2.80;;;2.90;19.30;;;;;;10481570;28;20199;-78
2023/01/31 00:08:47;;;;;;;18.33;3.50;;;2.90;12.00;;;;;;10441849;28;20189;-79
2023/01/31 00:14:17;;;;;;;12.73;2.93;;;2.90;10.50;;;;;;10481602;28;20303;-78
2023/01/31 00:19:38;;;;;;;17.77;3.30;;;2.80;13.40;;;;;;10480512;28;20202;-78
2023/01/31 00:24:59;;;;;;;16.43;3.50;;;2.70;16.70;;;;;;10481249;28;20199;-79
2023/01/31 00:30:20;;;;;;;19.60;2.93;;;2.70;15.10;;;;;;10480001;28;20221;-78
2023/01/31 00:35:41;;;;;;;20.30;2.47;;;2.60;22.70;;;;;;10458928;28;20223;-79
2023/01/31 00:41:05;;;;;;;14.93;3.23;;;2.60;15.30;;;;;;10478808;28;20196;-78
2023/01/31 00:46:27;;;;;;;22.13;2.30;;;2.50;22.80;;;;;;10480277;28;20192;-79
2023/01/31 00:51:48;;;;;;;18.80;3.07;;;2.50;32.60;;;;;;10477039;28;20236;-79
2023/01/31 00:57:09;;;;;;;13.90;2.73;;;2.60;30.60;;;;;;10479055;28;20269;-79
2023/01/31 01:02:30;;;;;;;11.80;3.53;;;2.60;27.70;;;;;;10478820;28;20212;-77
2023/01/31 01:07:51;;;;;;;17.63;2.83;;;2.70;15.70;;;;;;10464125;28;20196;-78
2023/01/31 01:13:12;;;;;;;11.13;2.80;;;2.70;9.30;;;;;;10445245;28;20468;-78
2023/01/31 01:18:35;;;;;;;22.07;3.07;;;2.70;5.90;;;;;;10437000;28;20192;-78
2023/01/31 01:24:00;;;;;;;12.77;3.47;;;2.70;7.80;;;;;;10464646;28;20227;-78
2023/01/31 01:29:21;;;;;;;21.03;2.90;;;2.70;13.60;;;;;;10477951;28;20200;-78
2023/01/31 01:34:42;;;;;;;16.23;3.33;;;2.80;1.00;;;;;;10436358;28;20221;-79
2023/01/31 01:40:03;;;;;;;17.17;3.07;;;2.80;1.00;;;;;;10465666;28;20382;-78
2023/01/31 01:45:24;;;;;;;11.07;2.73;;;2.70;2.40;;;;;;10477229;28;20192;-79
2023/01/31 01:50:48;;;;;;;16.60;3.03;;;2.60;1.00;;;;;;10473366;28;20195;-79
2023/01/31 01:56:18;;;;;;;15.33;3.13;;;2.60;5.20;;;;;;10444512;28;20231;-78
2023/01/31 02:01:39;;;;;;;14.33;3.47;;;2.70;1.00;;;;;;10477999;28;20200;-78
2023/01/31 02:07:06;;;;;;;15.30;2.57;;;2.60;1.00;;;;;;10461326;28;20585;-79
2023/01/31 02:12:27;;;;;;;16.30;2.80;;;2.60;1.00;;;;;;10436632;28;20243;-78
2023/01/31 02:17:49;;;;;;;15.83;3.03;;;2.70;1.00;;;;;;10436345;28;20231;-78
2023/01/31 02:23:25;;;;;;;20.70;3.53;;;2.60;1.00;;;;;;10461574;28;20386;-79
2023/01/31 02:29:20;;;;;;;13.93;2.10;;;2.50;1.00;;;;;;10476281;28;20210;-77
2023/01/31 02:35:08;;;;;;;20.17;2.37;;;2.40;1.00;;;;;;10476121;28;20225;-79
2023/01/31 02:40:37;;;;;;;13.90;2.33;;;2.40;1.00;;;;;;10472692;28;20206;-78
2023/01/31 02:46:16;;;;;;;6.83;1.60;;;2.30;1.00;;;;;;10447983;28;20205;-78
2023/01/31 02:52:14;;;;;;;18.17;2.43;;;2.30;1.00;;;;;;10475341;28;20402;-76
2023/01/31 02:57:26;;;;;;;16.03;2.63;;;2.30;1.00;;;;;;10444860;28;20417;-78
2023/01/31 03:02:48;;;;;;;16.00;3.13;;;2.20;1.00;;;;;;10474075;28;20374;-78
2023/01/31 03:08:15;;;;;;;19.83;2.90;;;2.20;1.00;;;;;;10482369;28;20192;-78
2023/01/31 03:13:55;;;;;;;17.90;2.20;;;2.20;1.00;;;;;;10468956;28;20230;-78
2023/01/31 03:19:34;;;;;;;20.63;2.83;;;2.10;1.00;;;;;;10482218;28;20252;-78
2023/01/31 03:24:58;;;;;;;14.83;2.70;;;2.10;1.00;;;;;;10464319;28;20491;-78
2023/01/31 03:30:26;;;;;;;15.23;2.40;;;2.00;1.00;;;;;;10447065;28;20230;-79
2023/01/31 03:35:56;;;;;;;12.77;2.20;;;2.00;1.00;;;;;;10483307;28;20528;-78
2023/01/31 03:41:32;;;;;;;16.43;2.93;;;2.10;1.00;;;;;;10481988;28;20249;-78
2023/01/31 03:47:02;;;;;;;17.90;3.10;;;2.10;1.00;;;;;;10480019;28;20204;-78
2023/01/31 03:52:33;;;;;;;24.23;3.03;;;2.20;1.00;;;;;;10481863;28;20222;-78
2023/01/31 03:57:57;;;;;;;19.07;2.27;;;2.10;1.00;;;;;;10480998;28;20228;-78
2023/01/31 04:03:45;;;;;;;12.40;3.40;;;2.20;1.00;;;;;;10468022;28;20499;-78
2023/01/31 04:09:07;;;;;;;16.30;2.97;;;2.20;1.00;;;;;;10440895;28;20299;-78
2023/01/31 04:14:28;;;;;;;14.93;2.60;;;2.10;1.00;;;;;;10440340;28;20291;-78
2023/01/31 04:19:50;;;;;;;14.57;2.80;;;2.10;1.00;;;;;;10470435;28;20210;-78
2023/01/31 04:25:10;;;;;;;18.60;2.50;;;2.20;1.00;;;;;;10463515;28;20507;-79
2023/01/31 04:30:32;;;;;;;10.83;2.40;;;2.20;1.00;;;;;;10439711;28;20189;-76
2023/01/31 04:35:53;;;;;;;17.83;3.53;;;2.40;1.00;;;;;;10480781;28;20239;-77
2023/01/31 04:41:13;;;;;;;12.70;2.77;;;2.30;1.00;;;;;;10479272;28;20417;-76
2023/01/31 04:46:34;;;;;;;13.57;2.27;;;2.30;1.00;;;;;;10478232;28;20227;-78
2023/01/31 04:51:56;;;;;;;12.10;2.53;;;2.40;1.00;;;;;;10478382;28;20242;-78
2023/01/31 04:57:17;;;;;;;12.30;2.33;;;2.40;1.00;;;;;;10479546;28;20288;-79
2023/01/31 05:02:39;;;;;;;12.57;2.13;;;2.40;1.00;;;;;;10479958;28;20224;-78
2023/01/31 05:08:00;;;;;;;12.23;2.63;;;2.30;1.00;;;;;;10466808;28;20196;-79
2023/01/31 05:13:22;;;;;;;15.60;2.80;;;2.30;1.00;;;;;;10437915;28;20222;-79
2023/01/31 05:18:42;;;;;;;15.03;2.77;;;2.40;1.00;;;;;;10437796;28;20193;-79
2023/01/31 05:24:04;;;;;;;14.33;2.67;;;2.40;1.00;;;;;;10463626;28;20206;-79
2023/01/31 05:29:26;;;;;;;18.10;2.87;;;2.40;1.00;;;;;;10477373;28;20187;-78
2023/01/31 05:34:47;;;;;;;12.37;2.20;;;2.30;1.00;;;;;;10477259;28;20219;-77
2023/01/31 05:40:13;;;;;;;13.57;2.67;;;2.30;1.00;;;;;;10476945;28;20217;-77
2023/01/31 05:45:34;;;;;;;13.73;2.73;;;2.30;1.00;;;;;;10478288;28;20191;-79
2023/01/31 05:50:55;;;;;;;16.20;3.33;;;2.20;1.00;;;;;;10476157;28;20238;-78
2023/01/31 05:56:17;;;;;;;13.20;2.93;;;2.10;1.00;;;;;;10477956;28;20288;-79
2023/01/31 06:01:38;;;;;;;18.23;3.10;;;2.20;1.00;;;;;;10478218;28;20237;-79
2023/01/31 06:06:59;;;;;;;11.90;3.13;;;2.10;1.00;;;;;;10464753;28;20204;-78
2023/01/31 06:12:20;;;;;;;12.90;2.73;;;2.10;1.00;;;;;;10436299;28;20564;-79
2023/01/31 06:17:41;;;;;;;15.50;3.23;;;2.20;1.00;;;;;;10449318;28;20202;-79
2023/01/31 06:23:03;;;;;;;15.30;2.93;;;2.20;1.00;;;;;;10461036;28;20204;-78
2023/01/31 06:28:24;;;;;;;14.03;3.23;;;2.10;1.00;;;;;;10477648;28;20199;-79
2023/01/31 06:33:45;;;;;;;21.63;3.73;;;2.20;1.00;;;;;;10476415;28;20221;-78
2023/01/31 06:39:12;;;;;;;12.73;2.67;;;2.20;1.00;;;;;;10460741;28;20222;-78
2023/01/31 06:44:34;;;;;;;19.90;3.40;;;2.20;1.00;;;;;;10484092;28;20192;-78
2023/01/31 06:49:55;;;;;;;12.73;2.97;;;2.20;1.00;;;;;;10484804;28;20499;-78
2023/01/31 06:55:16;;;;;;;13.73;2.77;;;2.10;1.00;;;;;;10482214;28;20243;-78
2023/01/31 07:00:37;;;;;;;13.93;2.97;;;2.20;1.00;;;;;;10484545;28;20374;-77
2023/01/31 07:05:58;;;;;;;16.13;3.60;;;2.30;1.00;;;;;;10483170;28;20203;-78
2023/01/31 07:11:19;;;;;;;20.77;3.00;;;2.30;1.00;;;;;;10445234;28;20196;-78
2023/01/31 07:16:41;;;;;;;18.87;3.87;;;2.30;1.00;;;;;;10441156;28;20235;-78
2023/01/31 07:22:02;;;;;;;16.03;3.13;;;2.40;1.00;;;;;;10449147;28;20547;-77
2023/01/31 07:27:23;;;;;;;26.30;6.07;;;2.30;1.00;;;;;;10483380;28;20199;-77
2023/01/31 07:32:44;;;;;;;15.53;3.37;;;2.40;1.00;;;;;;10482267;28;20538;-77
2023/01/31 07:38:05;;;;;;;14.63;3.80;;;2.60;1.00;;;;;;10471386;28;20218;-75
2023/01/31 07:43:27;;;;;;;14.43;3.83;;;2.60;1.00;;;;;;10482954;28;20188;-77
2023/01/31 07:48:47;;;;;;;20.90;3.57;;;2.70;1.00;;;;;;10482387;28;20506;-77
2023/01/31 07:54:10;;;;;;;20.47;4.90;;;2.90;1.00;;;;;;10480226;28;20227;-77
2023/01/31 07:59:31;;;;;;;15.63;4.27;;;3.10;1.00;;;;;;10482295;28;20249;-78
2023/01/31 08:04:53;;;;;;;13.93;3.23;;;3.20;1.00;;;;;;10481752;28;20213;-77
2023/01/31 08:10:16;;;;;;;16.20;3.07;;;3.20;1.00;;;;;;10460467;28;20275;-77
2023/01/31 08:15:37;;;;;;;14.50;3.90;;;3.00;1.00;;;;;;10440049;28;20230;-76
2023/01/31 08:20:59;;;;;;;20.47;8.30;;;3.20;1.00;;;;;;10426780;28;20451;-79
2023/01/31 08:26:21;;;;;;;16.07;4.13;;;3.40;1.00;;;;;;10422146;28;20212;-77
2023/01/31 08:31:43;;;;;;;16.53;3.47;;;3.50;99.90;;;;;;10424479;28;20189;-75
2023/01/31 08:37:04;;;;;;;14.57;3.70;;;3.60;1.00;;;;;;10432283;28;20243;-76
2023/01/31 08:42:26;;;;;;;18.63;3.60;;;3.80;1.00;;;;;;10433575;28;20813;-77
2023/01/31 08:47:47;;;;;;;17.30;3.83;;;3.90;1.00;;;;;;10408543;28;20236;-77
2023/01/31 08:53:08;;;;;;;12.63;2.50;;;3.80;1.00;;;;;;10402174;28;20255;-76
2023/01/31 08:58:32;;;;;;;15.57;2.60;;;3.70;1.00;;;;;;10390101;28;20236;-75
2023/01/31 09:03:55;;;;;;;7.83;2.20;;;3.60;1.00;;;;;;10390158;28;20422;-76
2023/01/31 09:09:16;;;;;;;13.23;3.20;;;3.90;1.00;;;;;;10426278;28;20213;-76
2023/01/31 09:14:37;;;;;;;11.47;2.83;;;3.90;60.90;;;;;;10466376;28;20239;-77
2023/01/31 09:19:58;;;;;;;11.90;2.43;;;3.80;1.00;;;;;;10431714;28;20217;-80
2023/01/31 09:25:19;;;;;;;8.77;1.97;;;3.70;45.20;;;;;;10415858;28;20212;-80
2023/01/31 09:30:53;;;;;;;18.13;2.93;;;3.70;1.00;;;;;;10419439;28;20383;-75
2023/01/31 09:36:20;;;;;;;15.13;2.87;;;3.80;99.90;;;;;;10433514;28;20235;-77
2023/01/31 09:42:08;;;;;;;7.83;1.80;;;3.80;99.90;;;;;;10438023;28;20208;-78
2023/01/31 09:47:43;;;;;;;10.43;2.57;;;3.80;1.00;;;;;;10432226;28;20193;-76
2023/01/31 09:53:04;;;;;;;10.77;2.77;;;3.90;1.00;;;;;;10450381;28;20282;-77
2023/01/31 09:58:40;;;;;;;4.63;1.70;;;4.10;72.30;;;;;;10435437;28;20292;-77
2023/01/31 10:04:13;;;;;;;11.30;2.20;;;4.10;84.30;;;;;;10430899;28;20209;-77
2023/01/31 10:09:49;;;;;;;9.90;1.80;;;4.10;99.90;;;;;;10465521;28;20226;-88
2023/01/31 10:15:20;;;;;;;19.60;3.10;;;4.00;1.00;;;;;;10440745;28;20225;-80
2023/01/31 10:20:51;;;;;;;9.23;2.33;;;4.10;99.90;;;;;;10433460;28;20504;-78
2023/01/31 10:26:19;;;;;;;17.77;2.57;;;4.20;1.00;;;;;;10439214;28;20239;-78
2023/01/31 10:31:45;;;;;;;9.97;2.40;;;4.30;1.00;;;;;;10423921;28;20399;-78
2023/01/31 10:37:26;;;;;;;13.97;2.23;;;4.30;1.00;;;;;;10432635;28;20427;-77
2023/01/31 10:42:52;;;;;;;9.90;2.07;;;4.30;1.00;;;;;;10436137;28;20205;-78
2023/01/31 10:48:19;;;;;;;12.00;2.13;;;4.30;99.90;;;;;;10421928;28;20227;-78
2023/01/31 10:53:48;;;;;;;10.13;2.23;;;4.20;99.90;;;;;;10435862;28;20256;-77
2023/01/31 10:59:33;;;;;;;13.97;2.90;;;4.10;1.00;;;;;;10438163;28;20221;-80
2023/01/31 11:04:59;;;;;;;11.43;1.93;;;4.20;1.00;;;;;;10436674;28;20402;-82
2023/01/31 11:10:26;;;;;;;6.93;2.47;;;4.10;31.20;;;;;;10436732;28;20193;-80
2023/01/31 11:15:52;;;;;;;9.70;2.13;;;4.20;1.00;;;;;;10435946;28;20226;-77
2023/01/31 11:21:25;;;;;;;8.27;2.13;;;4.40;99.90;;;;;;10424709;28;20202;-78
2023/01/31 11:27:08;;;;;;;7.23;1.70;;;4.70;1.00;;;;;;10394832;28;20522;-80
2023/01/31 11:32:34;;;;;;;13.03;2.40;;;5.00;1.00;;;;;;10422971;28;20217;-77
2023/01/31 11:38:00;;;;;;;10.90;1.97;;;4.90;99.90;;;;;;10436170;28;20225;-77
2023/01/31 11:43:25;;;;;;;10.03;1.97;;;4.70;1.00;;;;;;10434164;28;20202;-78
2023/01/31 11:48:46;;;;;;;6.30;2.07;;;4.60;99.90;;;;;;10422419;28;20221;-78
2023/01/31 11:54:17;;;;;;;5.60;2.10;;;5.80;99.90;;;;;;10449447;28;20228;-78
2023/01/31 11:59:39;;;;;;;9.47;2.77;;;8.30;1.00;;;;;;10443702;28;20466;-78
2023/01/31 12:05:06;;;;;;;7.13;1.40;;;9.80;99.90;;;;;;10455328;28;20208;-79
2023/01/31 12:10:27;;;;;;;6.67;1.40;;;9.10;99.90;;;;;;10451792;28;20207;-77
2023/01/31 12:16:01;;;;;;;9.77;2.10;;;7.60;99.90;;;;;;10440283;28;20229;-77
2023/01/31 12:21:22;;;;;;;9.80;4.03;;;6.40;99.90;;;;;;10437485;28;20196;-78
2023/01/31 12:27:03;;;;;;;9.07;2.20;;;5.80;1.00;;;;;;10474335;28;20204;-79
2023/01/31 12:33:00;;;;;;;9.50;2.37;;;5.40;99.90;;;;;;10458925;28;20214;-75
2023/01/31 12:38:49;;;;;;;8.30;2.00;;;5.00;99.90;;;;;;10437515;28;20412;-77
2023/01/31 12:44:32;;;;;;;9.03;2.27;;;4.70;1.00;;;;;;10449993;28;20200;-80
2023/01/31 12:50:11;;;;;;;12.70;2.90;;;4.40;14.50;;;;;;10444062;28;20204;-80
2023/01/31 12:55:40;;;;;;;21.23;2.80;;;4.40;99.90;;;;;;10452390;28;20415;-81
2023/01/31 13:01:33;;;;;;;14.43;5.10;;;4.50;1.00;;;;;;10452756;28;20276;-78
2023/01/31 13:07:07;;;;;;;8.57;2.90;;;5.10;1.00;;;;;;10451186;28;20213;-75
2023/01/31 13:12:31;;;;;;;12.20;3.00;;;5.50;1.00;;;;;;10448130;28;20225;-83
2023/01/31 13:17:59;;;;;;;12.43;3.80;;;5.70;1.00;;;;;;10439409;28;20207;-78
2023/01/31 13:24:12;;;;;;;8.70;2.47;;;5.70;99.90;;;;;;10451915;28;20205;-80
2023/01/31 13:29:45;;;;;;;8.87;3.07;;;5.40;1.00;;;;;;10448647;28;20192;-78
2023/01/31 13:35:34;;;;;;;10.90;2.30;;;5.00;97.90;;;;;;10432963;28;20225;-80
2023/01/31 13:40:56;;;;;;;7.47;2.30;;;4.80;1.00;;;;;;10435380;28;20204;-82
2023/01/31 13:46:23;;;;;;;11.67;2.70;;;4.80;1.00;;;;;;10441570;28;20441;-81
2023/01/31 13:51:56;;;;;;;15.23;3.13;;;4.80;99.90;;;;;;10425056;28;20236;-79
2023/01/31 13:57:25;;;;;;;19.87;5.67;;;4.70;99.90;;;;;;10452983;28;20258;-80
2023/01/31 14:03:08;;;;;;;20.97;4.93;;;4.50;99.90;;;;;;10440519;28;20395;-78
2023/01/31 14:08:48;;;;;;;19.83;5.20;;;4.30;1.00;;;;;;10452727;28;20269;-77
2023/01/31 14:14:28;;;;;;;18.30;4.90;;;4.20;99.90;;;;;;10434247;28;20400;-78
2023/01/31 14:19:50;;;;;;;24.83;7.67;;;4.10;1.00;;;;;;10433121;28;20211;-79
2023/01/31 14:25:14;;;;;;;16.00;5.20;;;4.00;1.00;;;;;;10449506;28;20303;-78
2023/01/31 14:30:41;;;;;;;20.33;5.60;;;3.90;1.00;;;;;;10445723;28;20202;-79
2023/01/31 14:36:33;;;;;;;27.80;8.23;;;3.90;1.00;;;;;;10440662;28;20224;-79
2023/01/31 14:42:17;;;;;;;27.10;6.67;;;3.90;1.00;;;;;;10433095;28;20502;-79
2023/01/31 14:47:51;;;;;;;24.43;7.77;;;3.90;1.00;;;;;;10438422;28;20276;-81
2023/01/31 14:53:27;;;;;;;22.90;5.10;;;3.90;1.00;;;;;;10442720;28;20284;-79
2023/01/31 14:58:48;;;;;;;17.80;6.47;;;3.90;1.00;;;;;;10453627;28;20231;-78
2023/01/31 15:04:20;;;;;;;21.27;6.80;;;3.90;1.00;;;;;;10451784;28;20542;-78
2023/01/31 15:09:41;;;;;;;21.63;7.77;;;3.90;99.90;;;;;;10450952;28;20279;-77
2023/01/31 15:15:04;;;;;;;26.07;11.37;;;3.80;99.90;;;;;;10442300;28;20218;-79
2023/01/31 15:20:42;;;;;;;14.70;5.17;;;3.70;99.90;;;;;;10446428;28;20277;-82
2023/01/31 15:26:03;;;;;;;19.73;7.40;;;3.70;1.00;;;;;;10442800;28;20212;-76
2023/01/31 15:31:34;;;;;;;17.03;6.43;;;3.60;1.00;;;;;;10439797;28;20373;-78
2023/01/31 15:37:12;;;;;;;11.00;5.43;;;3.50;1.00;;;;;;10455909;28;20235;-78
2023/01/31 15:42:34;;;;;;;13.03;5.03;;;3.30;1.00;;;;;;10451660;28;20199;-77
2023/01/31 15:48:13;;;;;;;16.10;5.23;;;3.20;1.00;;;;;;10446246;28;20204;-77
2023/01/31 15:53:34;;;;;;;14.13;4.63;;;3.20;1.00;;;;;;10420793;28;20590;-77
2023/01/31 15:58:57;;;;;;;13.93;5.70;;;3.10;1.00;;;;;;10435297;28;20277;-79
2023/01/31 16:04:18;;;;;;;10.60;5.30;;;3.00;1.00;;;;;;10452088;28;20329;-82
2023/01/31 16:09:40;;;;;;;12.53;5.13;;;3.00;1.00;;;;;;10437173;28;20515;-78
2023/01/31 16:15:04;;;;;;;21.67;10.00;;;2.90;4.80;;;;;;10439439;28;20253;-77
2023/01/31 16:20:43;;;;;;;17.80;7.87;;;2.80;25.30;;;;;;10438548;28;20333;-77
2023/01/31 16:26:24;;;;;;;19.57;9.27;;;2.70;23.60;;;;;;10438463;28;20208;-78
2023/01/31 16:31:49;;;;;;;16.87;8.43;;;2.60;71.60;;;;;;10438668;28;20196;-80
2023/01/31 16:37:11;;;;;;;17.37;7.20;;;2.60;73.80;;;;;;10439692;28;20241;-77
2023/01/31 16:42:42;;;;;;;15.53;7.17;;;2.50;89.30;;;;;;10436296;28;20196;-80
2023/01/31 16:48:21;;;;;;;13.60;6.23;;;2.50;99.90;;;;;;10437298;28;20196;-79
2023/01/31 16:53:42;;;;;;;16.17;5.97;;;2.50;92.30;;;;;;10438719;28;20208;-78
2023/01/31 16:59:03;;;;;;;18.20;7.97;;;2.50;99.90;;;;;;10437039;28;20311;-80
2023/01/31 17:04:24;;;;;;;18.03;7.83;;;2.50;99.90;;;;;;10438502;28;20271;-79
2023/01/31 17:09:46;;;;;;;36.20;16.17;;;2.50;99.90;;;;;;10438351;28;20196;-79
2023/01/31 17:15:16;;;;;;;25.27;9.70;;;2.50;99.90;;;;;;10434664;28;20278;-76
2023/01/31 17:20:47;;;;;;;25.63;10.07;;;2.50;99.90;;;;;;10437491;28;20193;-75
2023/01/31 17:26:21;;;;;;;18.60;8.20;;;2.30;99.90;;;;;;10422280;28;20203;-77
2023/01/31 17:31:43;;;;;;;16.47;8.87;;;2.40;99.90;;;;;;10436457;28;20200;-75
2023/01/31 17:37:04;;;;;;;22.60;14.13;;;2.50;99.90;;;;;;10436636;28;20241;-78
2023/01/31 17:42:26;;;;;;;14.57;6.70;;;2.40;99.90;;;;;;10435279;28;20219;-76
2023/01/31 17:47:47;;;;;;;6.20;4.80;;;2.40;99.90;;;;;;10437224;28;20257;-76
2023/01/31 17:53:13;;;;;;;16.30;6.07;;;2.30;99.90;;;;;;10436235;28;20194;-80
2023/01/31 17:58:35;;;;;;;14.50;7.20;;;2.30;99.90;;;;;;10419471;28;20242;-79
2023/01/31 18:03:59;;;;;;;11.33;5.23;;;2.20;99.90;;;;;;10435426;28;20207;-78
2023/01/31 18:09:20;;;;;;;10.53;4.93;;;2.30;99.90;;;;;;10436107;28;20263;-78
2023/01/31 18:14:42;;;;;;;10.57;5.70;;;2.10;99.90;;;;;;10448740;28;20233;-77
2023/01/31 18:20:03;;;;;;;15.57;7.77;;;2.10;99.90;;;;;;10436354;28;20204;-77
2023/01/31 18:25:25;;;;;;;17.23;8.20;;;2.20;99.90;;;;;;10435958;28;20284;-77
2023/01/31 18:30:46;;;;;;;12.40;5.83;;;2.20;99.90;;;;;;10434293;28;20200;-78
2023/01/31 18:36:14;;;;;;;8.37;4.63;;;2.30;99.90;;;;;;10439632;28;20626;-77
2023/01/31 18:41:36;;;;;;;16.40;5.60;;;2.40;99.90;;;;;;10429103;28;20196;-80
2023/01/31 18:46:57;;;;;;;12.07;5.90;;;2.40;99.90;;;;;;10441452;28;20297;-80
2023/01/31 18:52:18;;;;;;;11.50;5.60;;;2.30;99.90;;;;;;10440518;28;20195;-80
2023/01/31 18:57:40;;;;;;;14.23;6.07;;;2.30;99.90;;;;;;10440173;28;20285;-79
2023/01/31 19:03:01;;;;;;;21.93;7.43;;;2.40;99.90;;;;;;10423864;28;20202;-77
2023/01/31 19:08:22;;;;;;;13.07;6.57;;;2.40;99.90;;;;;;10441494;28;20253;-79
2023/01/31 19:13:44;;;;;;;24.30;11.93;;;2.40;99.90;;;;;;10400841;28;20265;-76
2023/01/31 19:19:06;;;;;;;5.53;3.20;;;2.50;99.90;;;;;;10419613;28;20234;-78
2023/01/31 19:24:27;;;;;;;14.20;4.87;;;2.60;99.90;;;;;;10403993;28;20394;-77
2023/01/31 19:29:48;;;;;;;9.97;4.97;;;2.70;99.90;;;;;;10428105;28;20491;-78
2023/01/31 19:35:10;;;;;;;2.57;2.20;;;2.80;99.90;;;;;;10412752;28;20271;-80
2023/01/31 19:40:31;;;;;;;3.60;2.30;;;2.90;99.90;;;;;;10441732;28;20189;-77
2023/01/31 19:45:52;;;;;;;4.13;2.30;;;2.90;99.90;;;;;;10412569;28;20270;-77
2023/01/31 19:51:15;;;;;;;4.13;2.80;;;3.00;99.90;;;;;;10415218;28;20204;-76
2023/01/31 19:56:37;;;;;;;4.60;2.20;;;3.10;99.90;;;;;;10440794;28;20248;-78
2023/01/31 20:01:58;;;;;;;4.20;2.80;;;3.20;99.90;;;;;;10440063;28;20272;-77
2023/01/31 20:07:19;;;;;;;7.67;3.87;;;3.20;99.90;;;;;;10470416;28;20513;-77
2023/01/31 20:12:40;;;;;;;4.53;2.43;;;3.30;99.90;;;;;;10466982;28;20195;-79
2023/01/31 20:18:01;;;;;;;3.87;2.20;;;3.20;99.90;;;;;;10476022;28;20455;-79
2023/01/31 20:23:23;;;;;;;14.90;4.10;;;3.30;99.90;;;;;;10437562;28;20484;-80
2023/01/31 20:28:44;;;;;;;10.60;3.50;;;3.30;99.90;;;;;;10414516;28;20399;-78
2023/01/31 20:34:05;;;;;;;10.80;4.03;;;3.30;99.90;;;;;;10433217;28;20208;-80
2023/01/31 20:39:27;;;;;;;9.60;3.67;;;3.30;99.90;;;;;;10455766;28;20202;-79
2023/01/31 20:44:48;;;;;;;4.70;1.80;;;3.40;99.90;;;;;;10438419;28;20238;-79
2023/01/31 20:50:10;;;;;;;6.80;2.37;;;3.50;99.90;;;;;;10438496;28;20244;-79
2023/01/31 20:55:31;;;;;;;6.27;1.90;;;3.60;99.90;;;;;;10458481;28;20257;-80
2023/01/31 21:00:54;;;;;;;4.77;1.60;;;3.60;99.90;;;;;;10423132;28;20352;-79
2023/01/31 21:06:15;;;;;;;9.60;1.73;;;3.70;99.90;;;;;;10418870;28;20195;-77
2023/01/31 21:11:36;;;;;;;5.20;1.30;;;3.70;94.90;;;;;;10450118;28;20199;-80
2023/01/31 21:16:57;;;;;;;6.30;1.47;;;3.70;54.00;;;;;;10479579;28;20518;-80
2023/01/31 21:22:18;;;;;;;7.50;1.67;;;3.60;52.00;;;;;;10479151;28;20428;-79
2023/01/31 21:27:39;;;;;;;5.43;1.50;;;3.60;42.70;;;;;;10412380;28;20204;-80
2023/01/31 21:33:00;;;;;;;6.97;1.50;;;3.50;45.60;;;;;;10396756;28;20189;-78
2023/01/31 21:38:21;;;;;;;9.40;1.20;;;3.60;44.80;;;;;;10395180;28;20423;-79
2023/01/31 21:43:42;;;;;;;4.17;1.10;;;3.50;42.50;;;;;;10393405;28;20223;-77
2023/01/31 21:49:04;;;;;;;5.47;1.20;;;3.50;57.20;;;;;;10408695;28;20517;-76
2023/01/31 21:54:25;;;;;;;7.67;1.60;;;3.40;44.70;;;;;;10436050;28;20216;-77
2023/01/31 21:59:47;;;;;;;7.70;1.50;;;3.40;44.60;;;;;;10420858;28;20241;-78
2023/01/31 22:05:08;;;;;;;5.97;1.20;;;3.30;41.30;;;;;;10435806;28;20222;-80
2023/01/31 22:10:29;;;;;;;7.13;1.30;;;3.30;41.10;;;;;;10426354;28;20203;-79
2023/01/31 22:15:50;;;;;;;8.13;1.47;;;3.20;39.40;;;;;;10422175;28;20232;-80
2023/01/31 22:21:22;;;;;;;4.40;0.80;;;3.20;39.90;;;;;;10409352;28;20235;-80
2023/01/31 22:26:43;;;;;;;2.80;0.90;;;3.00;49.40;;;;;;10434296;28;20254;-80
2023/01/31 22:32:04;;;;;;;5.00;1.20;;;2.80;66.40;;;;;;10448814;28;20278;-80
2023/01/31 22:37:25;;;;;;;7.13;1.57;;;2.70;81.40;;;;;;10448560;28;20230;-79
2023/01/31 22:42:46;;;;;;;2.40;0.80;;;2.60;95.50;;;;;;10419733;28;20444;-78
2023/01/31 22:48:07;;;;;;;7.47;1.10;;;2.60;99.90;;;;;;10425901;28;20206;-79
2023/01/31 22:53:34;;;;;;;4.23;1.27;;;2.70;99.60;;;;;;10408602;28;20189;-79
2023/01/31 22:58:59;;;;;;;6.13;1.33;;;2.80;99.90;;;;;;10410525;28;20242;-80
2023/01/31 23:04:22;;;;;;;5.27;1.17;;;2.80;99.90;;;;;;10449452;28;20191;-79
2023/01/31 23:09:43;;;;;;;7.27;1.40;;;2.80;99.90;;;;;;10448586;28;20194;-79
2023/01/31 23:15:04;;;;;;;2.10;0.90;;;2.70;99.90;;;;;;10430344;28;20220;-79
2023/01/31 23:20:27;;;;;;;2.60;1.00;;;2.80;99.90;;;;;;10448927;28;20195;-79
2023/01/31 23:25:48;;;;;;;1.27;0.50;;;2.60;83.50;;;;;;10441028;28;20207;-79
2023/01/31 23:31:09;;;;;;;1.90;0.60;;;2.40;91.20;;;;;;10439562;28;20211;-79
2023/01/31 23:36:31;;;;;;;2.13;0.70;;;2.20;99.90;;;;;;10442216;28;20215;-79
2023/01/31 23:41:52;;;;;;;1.80;0.60;;;2.10;99.90;;;;;;10440969;28;20489;-79
2023/01/31 23:47:13;;;;;;;5.80;0.93;;;2.10;99.90;;;;;;10412129;28;20205;-80
2023/01/31 23:52:35;;;;;;;9.03;1.33;;;2.10;99.90;;;;;;10400882;28;20192;-80
2023/01/31 23:57:56;;;;;;;2.47;1.00;;;2.10;99.90;;;;;;10399497;28;20320;-80
